ADDS METAR Data INFO
IDs: Format: Raw Decoded Include TAF

Data at: 0315 UTC 22 Apr 2018

KBTM 220253Z AUTO 30007KT 10SM CLR 11/M03 A3010 RMK AO2 SLP183 T01061033 53017
KBTM 220153Z AUTO 33011KT 10SM CLR 13/M03 A3008 RMK AO2 SLP177 T01281033
KBTM 220053Z AUTO 31016G19KT 10SM CLR 15/M03 A3006 RMK AO2 SLP171 T01501033
KBTM 212353Z AUTO 30014G24KT 10SM CLR 17/M04 A3004 RMK AO2 SLP162 T01671039 10178 20139 56005
KBTM 212253Z AUTO 30017G24KT 10SM CLR 17/M05 A3005 RMK AO2 PK WND 28028/2207 SLP160 T01721050
KBTM 212153Z AUTO 29016KT 10SM CLR 17/M05 A3005 RMK AO2 SLP163 T01721050
KBTM 212053Z AUTO 27012G23KT 10SM CLR 17/M04 A3006 RMK AO2 SLP160 T01721044 56009
KBTM 211953Z AUTO 25016G25KT 230V290 10SM CLR 17/M04 A3006 RMK AO2 PK WND 25027/1917 SLP164 T01671044
KBTM 211853Z AUTO 25014G22KT 10SM CLR 16/M03 A3007 RMK AO2 SLP163 T01611028
KBTM 211753Z AUTO VRB03KT 10SM SCT065 14/M03 A3009 RMK AO2 SLP174 T01441028 10144 21028 58012
KBTM 211653Z AUTO 00000KT 10SM CLR 12/M04 A3011 RMK AO2 SLP181 T01221039
KBTM 211553Z AUTO VRB03KT 10SM OVC085 08/M02 A3013 RMK AO2 SLP191 T00831022
KBTM 211453Z AUTO 11006KT 10SM CLR 03/M03 A3013 RMK AO2 SLP193 T00331028 58001
KBTM 211353Z AUTO 00000KT 10SM CLR 00/M05 A3015 RMK AO2 SLP199 T00001050
KBTM 211253Z AUTO 16005KT 10SM CLR M03/M06 A3012 RMK AO2 SLP196 T10281056
KBTM 211153Z AUTO 00000KT 10SM CLR M02/M06 A3013 RMK AO2 SLP197 T10221056 10022 21028 56004
KBTM 211053Z AUTO 00000KT 10SM CLR M02/M05 A3014 RMK AO2 SLP198 T10171050
KBTM 210953Z AUTO 12003KT 10SM CLR M02/M05 A3014 RMK AO2 SLP200 T10171050
KBTM 210853Z AUTO 12003KT 10SM CLR 00/M04 A3015 RMK AO2 SLP197 T00001044 50000
KBTM 210753Z AUTO 00000KT 10SM CLR 00/M04 A3016 RMK AO2 SLP205 T00001044
KBTM 210653Z AUTO 12004KT 10SM CLR 01/M04 A3016 RMK AO2 SLP202 T00111039 401611033
KBTM 210553Z AUTO 15006KT 10SM CLR 02/M03 A3015 RMK AO2 SLP204 T00171033 10156 20017 51008
KBTM 210453Z AUTO 17003KT 10SM CLR 03/M03 A3014 RMK AO2 SLP202 T00331033
KBTM 210353Z AUTO 16007KT 10SM CLR 06/M03 A3014 RMK AO2 SLP200 T00611033
KBTM 210253Z AUTO 28004KT 10SM CLR 11/M06 A3012 RMK AO2 SLP192 T01061061 53003
KBTM 210153Z AUTO 32007KT 10SM CLR 14/M08 A3012 RMK AO2 SLP192 T01391078
KBTM 210053Z AUTO 34008KT 10SM CLR 15/M08 A3011 RMK AO2 SLP191 T01501078
KBTM 202353Z AUTO 31011G15KT 10SM CLR 16/M10 A3011 RMK AO2 SLP188 T01561100 10161 20106 55003
KBTM 202253Z AUTO 27005KT 10SM CLR 15/M09 A3011 RMK AO2 SLP188 T01501089
KBTM 202153Z AUTO 36010KT 10SM CLR 15/M08 A3011 RMK AO2 SLP188 T01501078
KBTM 202053Z AUTO 33008KT 10SM CLR 15/M07 A3012 RMK AO2 SLP189 T01501072 56010
KBTM 201953Z AUTO 29008G15KT 10SM CLR 13/M08 A3013 RMK AO2 SLP195 T01281078
KBTM 201853Z AUTO 03007KT 10SM CLR 13/M08 A3014 RMK AO2 SLP195 T01331078
KBTM 201753Z AUTO 26007G14KT 10SM CLR 11/M07 A3016 RMK AO2 SLP202 T01061067 10111 21033 56011
KBTM 201653Z AUTO 32005KT 10SM CLR 09/M05 A3017 RMK AO2 SLP201 T00891050
KBTM 201553Z AUTO 00000KT 10SM CLR 06/M04 A3018 RMK AO2 SLP211 T00561044